Skip Navigation Links Skip Navigation Links

Current Weather

St Clair County Intl, Port Huron, Mich.

For information only: do not use for flight planning or navigation.
Latest weather
Observation time Friday, May 29, 2020 7:15 PM EDT
Local time Friday, May 29, 2020 7:26 PM EDT
Flight conditions Visual Meteorological Conditions
Winds
Wind direction Northwest (310°)
Wind speed 6 mph
Visibility 10 mi.
Sky condition
Ceiling unlimited
Sky clear
Temperature 68°F
Dewpoint 50°F
Altimeter 29.91 in.Hg
Derived measurements
Relative humidity 53%
Density altitude 1423 ft.
Remarks
Fully automated report.
Automated weather observing station with precipitation discriminator.
METAR KPHN 292315Z AUTO 31005KT 10SM CLR 20/10 A2991 RMK AO2

Settings

Location code

InnerDrive.Weather 4.0.6770.0 Release CLR 4.0.30319.42000
Copyright ©2018 Inner Drive Technology. All rights reserved. Portions Copyright ©1986-2018 David Braverman.

Find weather

Site navigation


Skip Navigation Links

Place info

Page info

PayPal - The safer, easier way to pay online!

Return home.

Copyright ©2020 Inner Drive Technology. Purveyors of fine, hand-crafted computer software. Page printed 2020-05-29T23:26:14 UTC.